NCAR-RAP Real-Time Weather Data

Output produced by METARs form (26 September 2017  14:29 UTC)
found at http://weather.rap.ucar.edu/surface/
 
Conditions at: KBKV observed 26 September 2017  13:53 UTC
Temperature: 28.3°C (83°F)
Dewpoint: 21.1°C (70°F) [RH = 65%]
Pressure (altimeter): 29.96 inches Hg (1014.6 mb)
[Sea-level pressure: 1014.1 mb]
Winds: from the ESE (110 degrees) at 3 MPH (3 knots; 1.6 m/s)
Visibility: 10 or more miles (16+ km)
Ceiling: at least 12,000 feet AGL
Clouds: sky clear below 12,000 feet AGL
Present Weather: no significant weather observed at this time
KBKV 261353Z 11003KT 10SM CLR 28/21 A2996 RMK AO2 SLP141 T02830211

Conditions at: KBKV observed 26 September 2017  12:53 UTC
Temperature: 25.6°C (78°F)
Dewpoint: 23.3°C (74°F) [RH = 87%]
Pressure (altimeter): 29.94 inches Hg (1014.0 mb)
[Sea-level pressure: 1013.8 mb]
Winds: from the E (80 degrees) at 3 MPH (3 knots; 1.6 m/s)
Visibility: 10 or more miles (16+ km)
Ceiling: at least 12,000 feet AGL
Clouds: sky clear below 12,000 feet AGL
Present Weather: no significant weather observed at this time
KBKV 261253Z 08003KT 10SM CLR 26/23 A2994 RMK AO2 SLP138 T02560233

Conditions at: KBKV observed 26 September 2017  11:53 UTC
Temperature: 21.7°C (71°F)
Dewpoint: 21.1°C (70°F) [RH = 96%]
Pressure (altimeter): 29.93 inches Hg (1013.6 mb)
[Sea-level pressure: 1013.3 mb]
Winds: calm
Visibility: 6 miles (10 km)
Ceiling: at least 12,000 feet AGL
Clouds: sky clear below 12,000 feet AGL
Present Weather: BR  (mist)
KBKV 261153Z 00000KT 6SM BR CLR 22/21 A2993 RMK AO2 SLP133 T02170211 10233 20217 53016

Conditions at: KBKV observed 26 September 2017  10:53 UTC
Temperature: 21.7°C (71°F)
Dewpoint: 21.1°C (70°F) [RH = 96%]
Pressure (altimeter): 29.91 inches Hg (1013.0 mb)
[Sea-level pressure: 1012.5 mb]
Winds: calm
Visibility: 9 miles (14 km)
Ceiling: at least 12,000 feet AGL
Clouds: sky clear below 12,000 feet AGL
Present Weather: no significant weather observed at this time
KBKV 261053Z 00000KT 9SM CLR 22/21 A2991 RMK AO2 SLP125 T02170211

Conditions at: KBKV observed 26 September 2017  10:03 UTC
Temperature: 21.7°C (71°F)
Dewpoint: 21.1°C (70°F) [RH = 96%]
Pressure (altimeter): 29.89 inches Hg (1012.3 mb)
Winds: calm
Visibility: 8 miles (13 km)
Ceiling: at least 12,000 feet AGL
Clouds: sky clear below 12,000 feet AGL
Present Weather: automated observation with no human augmentation;
there may or may not be significant weather present at this time
KBKV 261003Z AUTO 00000KT 8SM CLR 22/21 A2989 RMK AO2 T02170211

Conditions at: KBKV observed 26 September 2017  09:53 UTC
Temperature: 21.7°C (71°F)
Dewpoint: 21.1°C (70°F) [RH = 96%]
Pressure (altimeter): 29.89 inches Hg (1012.3 mb)
[Sea-level pressure: 1012.0 mb]
Winds: calm
Visibility: 2.50 miles (4.02 km)
Ceiling: at least 12,000 feet AGL
Clouds: sky clear below 12,000 feet AGL
Present Weather: BR  (mist)
KBKV 260953Z AUTO 00000KT 2 1/2SM BR CLR 22/21 A2989 RMK AO2 SLP120 T02170211

Conditions at: KBKV observed 26 September 2017  08:53 UTC
Temperature: 22.2°C (72°F)
Dewpoint: 21.7°C (71°F) [RH = 97%]
Pressure (altimeter): 29.89 inches Hg (1012.3 mb)
[Sea-level pressure: 1011.8 mb]
Winds: calm
Visibility: 10 or more miles (16+ km)
Ceiling: at least 12,000 feet AGL
Clouds: sky clear below 12,000 feet AGL
Present Weather: automated observation with no human augmentation;
there may or may not be significant weather present at this time
KBKV 260853Z AUTO 00000KT 10SM CLR 22/22 A2989 RMK AO2 SLP118 T02220217 56006

Conditions at: KBKV observed 26 September 2017  08:25 UTC
Temperature: 22.8°C (73°F)
Dewpoint: 21.7°C (71°F) [RH = 94%]
Pressure (altimeter): 29.89 inches Hg (1012.3 mb)
Winds: from the ENE (70 degrees) at 3 MPH (3 knots; 1.6 m/s)
Visibility: 3 miles (5 km)
Ceiling: at least 12,000 feet AGL
Clouds: sky clear below 12,000 feet AGL
Present Weather: BR  (mist)
KBKV 260825Z AUTO 07003KT 3SM BR CLR 23/22 A2989 RMK AO2 T02280217

Conditions at: KBKV observed 26 September 2017  08:17 UTC
Temperature: 21.7°C (71°F)
Dewpoint: 21.1°C (70°F) [RH = 96%]
Pressure (altimeter): 29.88 inches Hg (1011.9 mb)
Winds: calm
Visibility: 1.75 miles (2.82 km)
Ceiling: at least 12,000 feet AGL
Clouds: sky clear below 12,000 feet AGL
Present Weather: BR  (mist)
KBKV 260817Z AUTO 00000KT 1 3/4SM BR CLR 22/21 A2988 RMK AO2 T02170211

Conditions at: KBKV observed 26 September 2017  07:53 UTC
Temperature: 22.8°C (73°F)
Dewpoint: 21.7°C (71°F) [RH = 94%]
Pressure (altimeter): 29.88 inches Hg (1011.9 mb)
[Sea-level pressure: 1011.7 mb]
Winds: calm
Visibility: 10 or more miles (16+ km)
Ceiling: at least 12,000 feet AGL
Clouds: sky clear below 12,000 feet AGL
Present Weather: automated observation with no human augmentation;
there may or may not be significant weather present at this time
KBKV 260753Z AUTO 00000KT 10SM CLR 23/22 A2988 RMK AO2 SLP117 T02280217

Conditions at: KBKV observed 26 September 2017  06:53 UTC
Temperature: 23.3°C (74°F)
Dewpoint: 21.7°C (71°F) [RH = 91%]
Pressure (altimeter): 29.89 inches Hg (1012.3 mb)
[Sea-level pressure: 1011.9 mb]
Winds: calm
Visibility: 10 or more miles (16+ km)
Ceiling: at least 12,000 feet AGL
Clouds: few clouds at 5000 feet AGL
Present Weather: automated observation with no human augmentation;
there may or may not be significant weather present at this time
KBKV 260653Z AUTO 00000KT 10SM FEW050 23/22 A2989 RMK AO2 SLP119 T02330217

Conditions at: KBKV observed 26 September 2017  05:53 UTC
Temperature: 23.3°C (74°F)
Dewpoint: 21.7°C (71°F) [RH = 91%]
Pressure (altimeter): 29.90 inches Hg (1012.6 mb)
[Sea-level pressure: 1012.3 mb]
Winds: calm
Visibility: 10 or more miles (16+ km)
Ceiling: at least 12,000 feet AGL
Clouds: scattered clouds at 5000 feet AGL
Present Weather: automated observation with no human augmentation;
there may or may not be significant weather present at this time
KBKV 260553Z AUTO 00000KT 10SM SCT050 23/22 A2990 RMK AO2 SLP123 T02330217 10272 20233 55001

Conditions at: KBKV observed 26 September 2017  04:53 UTC
Temperature: 25.0°C (77°F)
Dewpoint: 22.2°C (72°F) [RH = 84%]
Pressure (altimeter): 29.90 inches Hg (1012.6 mb)
[Sea-level pressure: 1012.2 mb]
Winds: from the NE (40 degrees) at 5 MPH (4 knots; 2.1 m/s)
Visibility: 10 or more miles (16+ km)
Ceiling: at least 12,000 feet AGL
Clouds: few clouds at 5500 feet AGL
Present Weather: automated observation with no human augmentation;
there may or may not be significant weather present at this time
KBKV 260453Z AUTO 04004KT 10SM FEW055 25/22 A2990 RMK AO2 SLP122 T02500222 403390239

Conditions at: KBKV observed 26 September 2017  03:53 UTC
Temperature: 25.0°C (77°F)
Dewpoint: 21.7°C (71°F) [RH = 82%]
Pressure (altimeter): 29.90 inches Hg (1012.6 mb)
[Sea-level pressure: 1012.1 mb]
Winds: from the N (350 degrees) at 3 MPH (3 knots; 1.6 m/s)
Visibility: 10 or more miles (16+ km)
Ceiling: at least 12,000 feet AGL
Clouds: few clouds at 6000 feet AGL
Present Weather: automated observation with no human augmentation;
there may or may not be significant weather present at this time
KBKV 260353Z AUTO 35003KT 10SM FEW060 25/22 A2990 RMK AO2 SLP121 T02500217

Conditions at: KBKV observed 26 September 2017  02:53 UTC
Temperature: 25.0°C (77°F)
Dewpoint: 21.1°C (70°F) [RH = 79%]
Pressure (altimeter): 29.90 inches Hg (1012.6 mb)
[Sea-level pressure: 1012.4 mb]
Winds: calm
Visibility: 10 or more miles (16+ km)
Ceiling: at least 12,000 feet AGL
Clouds: scattered clouds at 5500 feet AGL
Present Weather: automated observation with no human augmentation;
there may or may not be significant weather present at this time
KBKV 260253Z AUTO 00000KT 10SM SCT055 25/21 A2990 RMK AO2 SLP124 T02500211 51016

Conditions at: KBKV observed 26 September 2017  01:53 UTC
Temperature: 25.0°C (77°F)
Dewpoint: 20.6°C (69°F) [RH = 77%]
Pressure (altimeter): 29.90 inches Hg (1012.6 mb)
[Sea-level pressure: 1012.3 mb]
Winds: from the NW (320 degrees) at 3 MPH (3 knots; 1.6 m/s)
Visibility: 10 or more miles (16+ km)
Ceiling: at least 12,000 feet AGL
Clouds: sky clear below 12,000 feet AGL
Present Weather: automated observation with no human augmentation;
there may or may not be significant weather present at this time
KBKV 260153Z AUTO 32003KT 10SM CLR 25/21 A2990 RMK AO2 SLP123 T02500206

Conditions at: KBKV observed 26 September 2017  00:53 UTC
Temperature: 25.6°C (78°F)
Dewpoint: 20.0°C (68°F) [RH = 71%]
Pressure (altimeter): 29.88 inches Hg (1011.9 mb)
[Sea-level pressure: 1011.7 mb]
Winds: from the W (260 degrees) at 3 MPH (3 knots; 1.6 m/s)
Visibility: 10 or more miles (16+ km)
Ceiling: at least 12,000 feet AGL
Clouds: sky clear below 12,000 feet AGL
Present Weather: no significant weather observed at this time
KBKV 260053Z 26003KT 10SM CLR 26/20 A2988 RMK AO2 SLP117 T02560200

Conditions at: KBKV observed 25 September 2017  23:53 UTC
Temperature: 26.7°C (80°F)
Dewpoint: 19.4°C (67°F) [RH = 64%]
Pressure (altimeter): 29.86 inches Hg (1011.3 mb)
[Sea-level pressure: 1010.8 mb]
Winds: from the WNW (300 degrees) at 6 MPH (5 knots; 2.6 m/s)
Visibility: 10 or more miles (16+ km)
Ceiling: at least 12,000 feet AGL
Clouds: sky clear below 12,000 feet AGL
Present Weather: no significant weather observed at this time
KBKV 252353Z 30005KT 10SM CLR 27/19 A2986 RMK AO2 SLP108 T02670194 10339 20267 53006

Conditions at: KBKV observed 25 September 2017  22:53 UTC
Temperature: 30.0°C (86°F)
Dewpoint: 17.8°C (64°F) [RH = 48%]
Pressure (altimeter): 29.85 inches Hg (1010.9 mb)
[Sea-level pressure: 1010.6 mb]
Winds: from the WNW (300 degrees) at 8 MPH (7 knots; 3.6 m/s)
Visibility: 10 or more miles (16+ km)
Ceiling: at least 12,000 feet AGL
Clouds: sky clear below 12,000 feet AGL
Present Weather: no significant weather observed at this time
KBKV 252253Z 30007KT 10SM CLR 30/18 A2985 RMK AO2 SLP106 T03000178

Conditions at: KBKV observed 25 September 2017  21:53 UTC
Temperature: 31.1°C (88°F)
Dewpoint: 18.3°C (65°F) [RH = 47%]
Pressure (altimeter): 29.84 inches Hg (1010.6 mb)
[Sea-level pressure: 1010.2 mb]
Winds: from the NW (310 degrees) at 12 MPH (10 knots; 5.2 m/s)
Visibility: 10 or more miles (16+ km)
Ceiling: at least 12,000 feet AGL
Clouds: sky clear below 12,000 feet AGL
Present Weather: no significant weather observed at this time
KBKV 252153Z 31010KT 10SM CLR 31/18 A2984 RMK AO2 SLP102 T03110183

Conditions at: KBKV observed 25 September 2017  20:53 UTC
Temperature: 32.2°C (90°F)
Dewpoint: 18.3°C (65°F) [RH = 44%]
Pressure (altimeter): 29.84 inches Hg (1010.6 mb)
[Sea-level pressure: 1010.2 mb]
Winds: from the NW (310 degrees) at 8 MPH (7 knots; 3.6 m/s)
Visibility: 10 or more miles (16+ km)
Ceiling: at least 12,000 feet AGL
Clouds: sky clear below 12,000 feet AGL
Present Weather: no significant weather observed at this time
KBKV 252053Z 31007KT 10SM CLR 32/18 A2984 RMK AO2 SLP102 T03220183 56018

Conditions at: KBKV observed 25 September 2017  19:53 UTC
Temperature: 33.3°C (92°F)
Dewpoint: 20.0°C (68°F) [RH = 46%]
Pressure (altimeter): 29.85 inches Hg (1010.9 mb)
[Sea-level pressure: 1010.7 mb]
Winds: from the WNW (300 degrees) at 14 MPH (12 knots; 6.2 m/s)
Visibility: 10 or more miles (16+ km)
Ceiling: at least 12,000 feet AGL
Clouds: sky clear below 12,000 feet AGL
Present Weather: no significant weather observed at this time
KBKV 251953Z 30012KT 10SM CLR 33/20 A2985 RMK AO2 SLP107 T03330200

Conditions at: KBKV observed 25 September 2017  18:53 UTC
Temperature: 32.8°C (91°F)
Dewpoint: 21.1°C (70°F) [RH = 50%]
Pressure (altimeter): 29.87 inches Hg (1011.6 mb)
[Sea-level pressure: 1011.3 mb]
Winds: missing
Visibility: 10 or more miles (16+ km)
Ceiling: 6500 feet AGL
Clouds: scattered clouds at 4900 feet AGL
broken clouds at 6500 feet AGL
broken clouds at 8000 feet AGL
Present Weather: no significant weather observed at this time
KBKV 251853Z 10SM SCT049 BKN065 BKN080 33/21 A2987 RMK AO2 SLP113 T03280211

Conditions at: KBKV observed 25 September 2017  17:53 UTC
Temperature: 31.7°C (89°F)
Dewpoint: 21.1°C (70°F) [RH = 54%]
Pressure (altimeter): 29.89 inches Hg (1012.3 mb)
[Sea-level pressure: 1012.0 mb]
Winds: from the E (80 degrees) at 3 MPH (3 knots; 1.6 m/s)
Visibility: 10 or more miles (16+ km)
Ceiling: 4500 feet AGL
Clouds: broken clouds at 4500 feet AGL
Present Weather: no significant weather observed at this time
KBKV 251753Z 08003KT 10SM BKN045 32/21 A2989 RMK AO2 SLP120 T03170211 10328 20239 58016

Conditions at: KBKV observed 25 September 2017  16:53 UTC
Temperature: 32.2°C (90°F)
Dewpoint: 21.7°C (71°F) [RH = 54%]
Pressure (altimeter): 29.92 inches Hg (1013.3 mb)
[Sea-level pressure: 1013.1 mb]
Winds: variable direction winds at 3 MPH (3 knots; 1.6 m/s)
Visibility: 10 or more miles (16+ km)
Ceiling: at least 12,000 feet AGL
Clouds: scattered clouds at 4000 feet AGL
Present Weather: no significant weather observed at this time
KBKV 251653Z VRB03KT 10SM SCT040 32/22 A2992 RMK AO2 SLP131 T03220217

Conditions at: KBKV observed 25 September 2017  15:53 UTC
Temperature: 31.1°C (88°F)
Dewpoint: 21.1°C (70°F) [RH = 55%]
Pressure (altimeter): 29.94 inches Hg (1014.0 mb)
[Sea-level pressure: 1013.5 mb]
Winds: calm
Visibility: 10 or more miles (16+ km)
Ceiling: at least 12,000 feet AGL
Clouds: few clouds at 2800 feet AGL
Present Weather: no significant weather observed at this time
KBKV 251553Z 00000KT 10SM FEW028 31/21 A2994 RMK AO2 SLP135 T03110211

Conditions at: KBKV observed 25 September 2017  14:53 UTC
Temperature: 28.9°C (84°F)
Dewpoint: 22.8°C (73°F) [RH = 70%]
Pressure (altimeter): 29.94 inches Hg (1014.0 mb)
[Sea-level pressure: 1013.6 mb]
Winds: variable direction winds at 3 MPH (3 knots; 1.6 m/s)
Visibility: 10 or more miles (16+ km)
Ceiling: at least 12,000 feet AGL
Clouds: few clouds at 2100 feet AGL
scattered clouds at 8500 feet AGL
Present Weather: no significant weather observed at this time
KBKV 251453Z VRB03KT 10SM FEW021 SCT085 29/23 A2994 RMK AO2 SLP136 T02890228 52006